createdAt,value
2019-01-14T00:00:30.309Z,98140.45
2019-01-14T00:03:02.314Z,98148.00
2019-01-14T00:05:34.062Z,98135.92
2019-01-14T00:08:05.753Z,98157.44
2019-01-14T00:10:36.942Z,98166.41
2019-01-14T00:13:08.718Z,98190.17
2019-01-14T00:15:39.468Z,98202.46
2019-01-14T00:18:11.297Z,98200.36
2019-01-14T00:20:42.801Z,98201.11
2019-01-14T00:23:14.397Z,98215.73
2019-01-14T00:25:46.285Z,98219.52
2019-01-14T00:28:17.872Z,98214.55
2019-01-14T00:30:49.678Z,98229.17
2019-01-14T00:33:20.631Z,98218.95
2019-01-14T00:35:53.071Z,98234.92
2019-01-14T00:38:25.266Z,98234.92
2019-01-14T00:40:56.833Z,98225.59
2019-01-14T00:43:28.594Z,98229.05
2019-01-14T00:46:00.400Z,98229.27
2019-01-14T00:48:32.067Z,98229.27
2019-01-14T00:51:03.745Z,98234.95
2019-01-14T00:53:34.471Z,98240.52
2019-01-14T00:56:06.318Z,98240.37
2019-01-14T00:58:37.841Z,98251.70
2019-01-14T01:01:09.629Z,98253.14
2019-01-14T01:03:41.341Z,98264.00
2019-01-14T01:06:12.906Z,98264.00
2019-01-14T01:08:44.625Z,98285.03
2019-01-14T01:11:16.352Z,98292.50
2019-01-14T01:13:48.066Z,98292.50
2019-01-14T01:16:19.812Z,98297.70
2019-01-14T01:18:52.049Z,98313.50
2019-01-14T01:21:23.783Z,98322.13
2019-01-14T01:23:54.466Z,98326.47
2019-01-14T01:26:26.308Z,98339.59
2019-01-14T01:28:58.323Z,98335.30
2019-01-14T01:31:30.061Z,98345.63
2019-01-14T01:34:02.363Z,98348.45
2019-01-14T01:36:34.070Z,98372.78
2019-01-14T01:39:08.721Z,98363.48
2019-01-14T01:41:39.443Z,98374.42
2019-01-14T01:44:11.074Z,98381.98
2019-01-14T01:46:42.974Z,98386.35
2019-01-14T01:49:14.786Z,98395.86
2019-01-14T01:51:45.710Z,98395.40
2019-01-14T01:54:16.460Z,98405.19
2019-01-14T01:56:48.055Z,98407.29
2019-01-14T01:59:19.802Z,98422.55
2019-01-14T02:01:51.335Z,98429.54
2019-01-14T02:04:23.069Z,98436.53
2019-01-14T02:06:54.750Z,98436.98
2019-01-14T02:09:26.377Z,98445.83
2019-01-14T02:11:58.362Z,98443.56
2019-01-14T02:14:30.062Z,98452.15
2019-01-14T02:17:01.849Z,98448.20
2019-01-14T02:19:33.758Z,98456.05
2019-01-14T02:22:04.474Z,98462.30
2019-01-14T02:24:36.310Z,98472.74
2019-01-14T02:27:07.907Z,98478.26
2019-01-14T02:29:39.770Z,98489.83
2019-01-14T02:32:10.590Z,98492.86
2019-01-14T02:34:41.684Z,98487.34
2019-01-14T02:37:12.454Z,98497.77
2019-01-14T02:39:44.614Z,98500.56
2019-01-14T02:42:16.367Z,98517.70
2019-01-14T02:44:48.314Z,98517.70
2019-01-14T02:47:19.909Z,98524.81
2019-01-14T02:49:51.384Z,98537.77
2019-01-14T02:52:23.062Z,98539.03
2019-01-14T02:54:54.745Z,98537.97
2019-01-14T02:57:25.452Z,98553.76
2019-01-14T02:59:57.066Z,98550.77
2019-01-14T03:02:28.780Z,98555.23
2019-01-14T03:04:59.457Z,98560.95
2019-01-14T03:07:31.289Z,98560.27
2019-01-14T03:10:02.831Z,98569.53
2019-01-14T03:12:34.786Z,98572.69
2019-01-14T03:15:06.106Z,98571.77
2019-01-14T03:17:37.753Z,98589.89
2019-01-14T03:20:10.752Z,98590.72
2019-01-14T03:22:41.754Z,98592.69
2019-01-14T03:25:15.645Z,98601.18
2019-01-14T03:27:47.741Z,98613.19
2019-01-14T03:30:20.956Z,98613.19
2019-01-14T03:32:52.768Z,98614.66
2019-01-14T03:35:23.477Z,98623.72
2019-01-14T03:37:55.310Z,98639.81
2019-01-14T03:40:26.825Z,98639.27
2019-01-14T03:42:58.407Z,98674.64
2019-01-14T03:45:30.078Z,98676.49
2019-01-14T03:48:01.770Z,98683.52
2019-01-14T03:50:32.458Z,98680.47
2019-01-14T03:53:04.305Z,98697.09
2019-01-14T03:55:36.318Z,98695.00
2019-01-14T03:58:07.856Z,98700.63
2019-01-14T04:00:39.560Z,98717.77
2019-01-14T04:03:11.771Z,98726.61
2019-01-14T04:05:43.394Z,98726.61
2019-01-14T04:08:15.279Z,98739.48
2019-01-14T04:10:46.868Z,98740.12
2019-01-14T04:13:18.594Z,98750.14
2019-01-14T04:15:50.322Z,98746.83
2019-01-14T04:18:21.925Z,98746.83
2019-01-14T04:20:54.326Z,98767.26
2019-01-14T04:23:25.806Z,98770.40
2019-01-14T04:26:03.874Z,98791.58
2019-01-14T04:28:35.727Z,98785.12
2019-01-14T04:31:06.497Z,98794.61
2019-01-14T04:33:38.304Z,98802.86
2019-01-14T04:36:09.844Z,98816.55
2019-01-14T04:38:41.668Z,98831.86
2019-01-14T04:41:13.362Z,98831.86
2019-01-14T04:43:45.348Z,98831.86
2019-01-14T04:46:17.109Z,98833.45
2019-01-14T04:48:48.787Z,98847.64
2019-01-14T04:51:19.501Z,98855.88
2019-01-14T04:53:51.381Z,98861.61
2019-01-14T04:56:23.074Z,98861.61
2019-01-14T04:58:54.782Z,98859.33
2019-01-14T05:01:26.368Z,98869.03
2019-01-14T05:03:58.763Z,98866.20
2019-01-14T05:06:30.557Z,98870.91
2019-01-14T05:09:02.411Z,98886.14
2019-01-14T05:11:34.068Z,98896.97
2019-01-14T05:14:05.787Z,98917.64
2019-01-14T05:16:36.545Z,98909.17
2019-01-14T05:19:08.343Z,98910.02
2019-01-14T05:21:39.898Z,98910.02
2019-01-14T05:24:11.777Z,98925.69
2019-01-14T05:26:42.644Z,98925.19
2019-01-14T05:29:14.621Z,98931.75
2019-01-14T05:31:46.386Z,98926.66
2019-01-14T05:34:18.071Z,98926.66
2019-01-14T05:36:49.996Z,98928.63
2019-01-14T05:39:21.795Z,98946.57
2019-01-14T05:41:53.378Z,98939.67
2019-01-14T05:44:25.077Z,98946.45
2019-01-14T05:46:56.768Z,98949.70
2019-01-14T05:49:27.475Z,98943.74
2019-01-14T05:51:59.313Z,98948.12
2019-01-14T05:54:31.300Z,98949.06
2019-01-14T05:57:03.314Z,98948.03
2019-01-14T05:59:34.924Z,98938.41
2019-01-14T06:02:06.799Z,98936.52
2019-01-14T06:04:37.508Z,98939.13
2019-01-14T06:07:09.326Z,98945.71
2019-01-14T06:09:41.000Z,98952.41
2019-01-14T06:12:12.786Z,98951.66
2019-01-14T06:14:43.605Z,98946.57
2019-01-14T06:17:15.434Z,98941.75
2019-01-14T06:19:47.817Z,98941.75
2019-01-14T06:22:19.736Z,98941.64
2019-01-14T06:24:51.355Z,98941.75
2019-01-14T06:27:23.312Z,98940.92
2019-01-14T06:29:54.853Z,98928.41
2019-01-14T06:32:26.634Z,98939.45
2019-01-14T06:34:58.351Z,98946.78
2019-01-14T06:37:30.078Z,98946.78
2019-01-14T06:40:01.793Z,98971.70
2019-01-14T06:42:34.342Z,98967.14
2019-01-14T06:45:06.814Z,98971.52
2019-01-14T06:47:38.620Z,98976.94
2019-01-14T06:50:13.426Z,98979.95
2019-01-14T06:52:45.073Z,98979.95
2019-01-14T06:55:16.839Z,98988.54
2019-01-14T06:57:48.591Z,98985.00
2019-01-14T07:00:29.001Z,98995.93
2019-01-14T07:03:00.802Z,98995.93
2019-01-14T07:05:32.627Z,98988.95
2019-01-14T07:08:03.686Z,99007.53
2019-01-14T07:10:34.440Z,99020.88
2019-01-14T07:13:06.317Z,99009.91
2019-01-14T07:15:37.826Z,99019.22
2019-01-14T07:18:09.618Z,99044.70
2019-01-14T07:20:41.348Z,99069.50
2019-01-14T07:23:13.318Z,99069.50
2019-01-14T07:25:44.997Z,99073.57
2019-01-14T07:28:16.770Z,99105.42
2019-01-14T07:30:47.481Z,99103.23
2019-01-14T07:33:19.599Z,99104.59
2019-01-14T07:35:51.322Z,99111.50
2019-01-14T07:38:23.316Z,99111.50
2019-01-14T07:40:54.837Z,99116.75
2019-01-14T07:43:26.610Z,99121.23
2019-01-14T07:45:57.857Z,99116.22
2019-01-14T07:48:29.461Z,99112.67
2019-01-14T07:51:01.317Z,99130.31
2019-01-14T07:53:32.864Z,99124.47
2019-01-14T07:56:04.650Z,99129.66
2019-01-14T07:58:35.632Z,99137.80
2019-01-14T08:01:07.374Z,99146.28
2019-01-14T08:03:39.069Z,99146.28
2019-01-14T08:06:10.749Z,99151.42
2019-01-14T08:08:41.453Z,99155.37
2019-01-14T08:11:13.298Z,99151.08
2019-01-14T08:13:45.002Z,99165.58
2019-01-14T08:16:16.732Z,99175.91
2019-01-14T08:18:47.512Z,99189.47
2019-01-14T08:21:19.277Z,99189.90
2019-01-14T08:23:50.804Z,99184.09
2019-01-14T08:26:22.992Z,99196.06
2019-01-14T08:28:54.774Z,99199.19
2019-01-14T08:31:25.455Z,99198.44
2019-01-14T08:33:57.296Z,99211.52
2019-01-14T08:36:28.788Z,99215.59
2019-01-14T08:39:00.590Z,99205.45
2019-01-14T08:41:34.808Z,99220.77
2019-01-14T08:44:09.356Z,99220.77
2019-01-14T08:46:41.062Z,99233.16
2019-01-14T08:49:12.782Z,99243.19
2019-01-14T08:51:43.466Z,99234.70
2019-01-14T08:54:15.305Z,99236.19
2019-01-14T08:56:47.365Z,99230.98
2019-01-14T08:59:19.030Z,99233.09
2019-01-14T09:01:50.742Z,99233.84
2019-01-14T09:04:22.707Z,99236.46
2019-01-14T09:06:54.762Z,99228.73
2019-01-14T09:09:25.461Z,99246.42
2019-01-14T09:11:57.469Z,99238.03
2019-01-14T09:14:29.036Z,99252.61
2019-01-14T09:17:00.749Z,99262.17
2019-01-14T09:19:31.481Z,99258.96
2019-01-14T09:22:03.304Z,99266.88
2019-01-14T09:24:34.824Z,99268.18
2019-01-14T09:27:06.594Z,99262.63
2019-01-14T09:29:38.465Z,99262.45
2019-01-14T09:32:10.337Z,99262.81
2019-01-14T09:34:42.310Z,99261.67
2019-01-14T09:37:13.858Z,99266.58
2019-01-14T09:39:45.622Z,99264.64
2019-01-14T09:42:17.366Z,99262.38
2019-01-14T09:44:49.300Z,99262.38
2019-01-14T09:47:20.829Z,99262.78
2019-01-14T09:49:52.456Z,99268.86
2019-01-14T09:52:24.310Z,99265.93
2019-01-14T09:54:55.848Z,99271.31
2019-01-14T09:57:27.611Z,99263.61
2019-01-14T09:59:59.372Z,99253.08
2019-01-14T10:02:31.050Z,99253.08
2019-01-14T10:05:02.797Z,99268.49
2019-01-14T10:07:34.437Z,99268.70
2019-01-14T10:10:07.818Z,99276.84
2019-01-14T10:12:39.350Z,99287.70
2019-01-14T10:15:16.389Z,99280.91
2019-01-14T10:17:51.997Z,99271.61
2019-01-14T10:20:23.748Z,99280.45
2019-01-14T10:22:54.524Z,99267.80
2019-01-14T10:25:27.317Z,99270.58
2019-01-14T10:27:59.048Z,99276.66
2019-01-14T10:30:31.306Z,99277.55
2019-01-14T10:33:02.981Z,99263.28
2019-01-14T10:35:34.756Z,99262.33
2019-01-14T10:38:05.476Z,99263.28
2019-01-14T10:40:37.297Z,99258.10
2019-01-14T10:43:08.856Z,99268.30
2019-01-14T10:45:40.647Z,99269.14
2019-01-14T10:48:12.368Z,99261.46
2019-01-14T10:50:44.070Z,99261.46
2019-01-14T10:53:15.734Z,99262.94
2019-01-14T10:55:46.495Z,99257.77
2019-01-14T10:58:18.301Z,99273.45
2019-01-14T11:00:49.882Z,99284.44
2019-01-14T11:03:21.720Z,99277.86
2019-01-14T11:05:52.463Z,99277.22
2019-01-14T11:08:24.377Z,99277.74
2019-01-14T11:10:56.561Z,99281.81
2019-01-14T11:13:28.297Z,99277.09
2019-01-14T11:15:59.817Z,99277.09
2019-01-14T11:18:31.404Z,99282.30
2019-01-14T11:21:03.059Z,99287.61
2019-01-14T11:23:34.748Z,99276.84
2019-01-14T11:26:05.434Z,99288.22
2019-01-14T11:28:37.298Z,99290.91
2019-01-14T11:31:10.737Z,99276.84
2019-01-14T11:33:42.441Z,99274.53
2019-01-14T11:36:14.387Z,99274.56
2019-01-14T11:38:55.733Z,99284.00
2019-01-14T11:41:27.593Z,99281.13
2019-01-14T11:43:59.417Z,99276.30
2019-01-14T11:46:30.999Z,99276.30
2019-01-14T11:49:02.696Z,99280.73
2019-01-14T11:51:33.446Z,99292.77
2019-01-14T11:54:05.293Z,99295.23
2019-01-14T11:56:37.313Z,99312.12
2019-01-14T11:59:09.033Z,99296.83
2019-01-14T12:01:40.765Z,99307.99
2019-01-14T12:04:11.442Z,99312.73
2019-01-14T12:06:43.062Z,99308.98
2019-01-14T12:09:14.774Z,99303.12
2019-01-14T12:11:45.931Z,99301.88
2019-01-14T12:14:17.724Z,99309.69
2019-01-14T12:16:48.491Z,99315.52
2019-01-14T12:19:20.293Z,99313.27
2019-01-14T12:21:51.984Z,99315.33
2019-01-14T12:24:23.738Z,99312.67
2019-01-14T12:26:54.447Z,99300.41
2019-01-14T12:29:26.305Z,99304.94
2019-01-14T12:31:57.842Z,99319.72
2019-01-14T12:34:29.578Z,99310.05
2019-01-14T12:37:01.311Z,99379.97
2019-01-14T12:39:32.829Z,99379.97
2019-01-14T12:42:04.624Z,99386.39
2019-01-14T12:44:54.624Z,99389.22
2019-01-14T12:47:26.393Z,99386.89
2019-01-14T12:49:58.057Z,99386.89
2019-01-14T12:52:30.362Z,99376.36
2019-01-14T12:55:02.279Z,99365.91
2019-01-14T12:57:33.858Z,99361.36
2019-01-14T13:00:07.757Z,99359.61
2019-01-14T13:02:38.454Z,99355.02
2019-01-14T13:05:10.381Z,99357.34
2019-01-14T13:07:42.048Z,99353.40
2019-01-14T13:10:14.304Z,99355.67
2019-01-14T13:12:45.849Z,99368.25
2019-01-14T13:15:24.263Z,99363.97
2019-01-14T13:17:56.065Z,99365.72
2019-01-14T13:20:27.769Z,99348.89
2019-01-14T13:22:59.737Z,99350.83
2019-01-14T13:25:31.344Z,99368.32
2019-01-14T13:28:02.872Z,99372.64
2019-01-14T13:30:34.376Z,99372.90
2019-01-14T13:33:06.094Z,99371.72
2019-01-14T13:35:38.301Z,99402.64
2019-01-14T13:38:09.876Z,99415.09
2019-01-14T13:40:41.744Z,99419.23
2019-01-14T13:43:12.474Z,99410.77
2019-01-14T13:45:44.310Z,99423.62
2019-01-14T13:48:15.878Z,99433.77
2019-01-14T13:50:47.754Z,99439.23
2019-01-14T13:53:19.385Z,99447.00
2019-01-14T13:55:51.336Z,99454.00
2019-01-14T13:58:22.856Z,99448.54
2019-01-14T14:00:54.626Z,99458.34
2019-01-14T14:03:26.315Z,99449.77
2019-01-14T14:05:58.017Z,99449.77
2019-01-14T14:08:29.728Z,99477.63
2019-01-14T14:11:00.479Z,99481.20
2019-01-14T14:13:32.301Z,99500.56
2019-01-14T14:16:03.871Z,99521.58
2019-01-14T14:18:35.611Z,99549.72
2019-01-14T14:21:07.702Z,99539.58
2019-01-14T14:23:38.450Z,99539.58
2019-01-14T14:26:10.341Z,99524.21
2019-01-14T14:28:42.057Z,99520.18
2019-01-14T14:31:13.744Z,99520.79
2019-01-14T14:33:44.483Z,99515.73
2019-01-14T14:36:16.754Z,99518.51
2019-01-14T14:38:47.663Z,99527.80
2019-01-14T14:41:18.572Z,99528.92
2019-01-14T14:43:50.316Z,99517.62
2019-01-14T14:46:22.298Z,99517.62
2019-01-14T14:49:01.761Z,99529.86
2019-01-14T14:51:33.755Z,99523.09
2019-01-14T14:54:11.629Z,99528.80
2019-01-14T14:56:48.883Z,99538.97
2019-01-14T14:59:20.807Z,99538.97
2019-01-14T15:01:53.820Z,99555.23
2019-01-14T15:04:25.604Z,99557.25
2019-01-14T15:06:57.788Z,99552.10
2019-01-14T15:09:31.697Z,99552.10
2019-01-14T15:12:04.066Z,99547.34
2019-01-14T15:14:37.331Z,99547.34
2019-01-14T15:17:09.404Z,99546.52
2019-01-14T15:19:42.028Z,99563.17
2019-01-14T15:22:14.312Z,99578.48
2019-01-14T15:24:45.913Z,99580.61
2019-01-14T15:27:17.741Z,99584.69
2019-01-14T15:29:48.464Z,99601.64
2019-01-14T15:32:20.395Z,99604.17
2019-01-14T15:34:52.304Z,99603.78
2019-01-14T15:37:25.760Z,99604.44
2019-01-14T15:40:03.011Z,99619.61
2019-01-14T15:42:30.342Z,99614.93
2019-01-14T15:45:02.057Z,99626.17
2019-01-14T15:47:33.782Z,99624.00
2019-01-14T15:50:06.270Z,99628.89
2019-01-14T15:52:38.301Z,99634.42
2019-01-14T15:55:29.789Z,99642.05
2019-01-14T15:58:00.591Z,99649.72
2019-01-14T16:00:32.370Z,99646.08
2019-01-14T16:03:04.062Z,99646.08
2019-01-14T16:05:35.829Z,99669.34
2019-01-14T16:08:07.601Z,99677.94
2019-01-14T16:10:39.802Z,99679.73
2019-01-14T16:13:11.759Z,99679.73
2019-01-14T16:15:43.641Z,99706.78
2019-01-14T16:18:15.435Z,99708.26
2019-01-14T16:20:47.653Z,99708.26
2019-01-14T16:23:19.818Z,99716.01
2019-01-14T16:25:51.870Z,99716.01
2019-01-14T16:28:24.142Z,99730.77
2019-01-14T16:30:55.801Z,99744.53
2019-01-14T16:33:27.765Z,99748.34
2019-01-14T16:35:58.556Z,99756.28
2019-01-14T16:38:30.486Z,99742.52
2019-01-14T16:41:02.620Z,99742.52
2019-01-14T16:43:34.370Z,99757.70
2019-01-14T16:46:06.874Z,99757.70
2019-01-14T16:48:38.818Z,99764.80
2019-01-14T16:51:10.883Z,99771.55
2019-01-14T16:53:42.806Z,99776.89
2019-01-14T16:56:15.267Z,99774.17
2019-01-14T16:58:47.482Z,99773.73
2019-01-14T17:04:01.318Z,99780.59
2019-01-14T17:06:33.057Z,99780.45
2019-01-14T17:09:08.446Z,99793.52
2019-01-14T17:11:40.301Z,99791.34
2019-01-14T17:14:12.336Z,99805.12
2019-01-14T17:16:44.474Z,99812.27
2019-01-14T17:19:16.301Z,99811.90
2019-01-14T17:21:48.017Z,99819.81
2019-01-14T17:24:20.353Z,99813.38
2019-01-14T17:26:52.302Z,99817.41
2019-01-14T17:29:23.836Z,99824.32
2019-01-14T17:31:55.613Z,99831.80
2019-01-14T17:34:28.309Z,99829.10
2019-01-14T17:37:00.028Z,99829.10
2019-01-14T17:39:31.752Z,99849.59
2019-01-14T17:42:03.598Z,99853.30
2019-01-14T17:44:35.608Z,99864.68
2019-01-14T17:47:07.309Z,99857.52
2019-01-14T17:49:39.458Z,99857.52
2019-01-14T17:52:11.067Z,99864.53
2019-01-14T17:54:42.762Z,99874.44
2019-01-14T17:57:13.454Z,99876.24
2019-01-14T17:59:45.403Z,99881.58
2019-01-14T18:02:17.067Z,99894.14
2019-01-14T18:04:48.745Z,99897.84
2019-01-14T18:07:21.552Z,99899.91
2019-01-14T18:09:52.905Z,99900.47
2019-01-14T18:12:24.780Z,99903.09
2019-01-14T18:14:55.542Z,99916.53
2019-01-14T18:17:27.257Z,99916.44
2019-01-14T18:19:58.825Z,99916.44
2019-01-14T18:22:30.750Z,99925.70
2019-01-14T18:25:01.465Z,99919.78
2019-01-14T18:27:33.438Z,99924.88
2019-01-14T18:30:07.309Z,99926.92
2019-01-14T18:32:39.754Z,99930.84
2019-01-14T18:35:10.483Z,99929.80
2019-01-14T18:37:42.313Z,99938.05
2019-01-14T18:40:15.762Z,99946.72
2019-01-14T18:42:48.055Z,99953.86
2019-01-14T18:45:21.753Z,99956.84
2019-01-14T18:47:52.623Z,99950.95
2019-01-14T18:50:25.414Z,99960.36
2019-01-14T18:52:57.421Z,99960.36
2019-01-14T18:55:29.886Z,99971.03
2019-01-14T18:58:03.759Z,99975.79
2019-01-14T19:00:35.000Z,99978.83
2019-01-14T19:03:06.757Z,99983.92
2019-01-14T19:05:37.950Z,99986.64
2019-01-14T19:08:10.312Z,99992.58
2019-01-14T19:10:42.064Z,99995.81
2019-01-14T19:13:13.751Z,99992.55
2019-01-14T19:15:45.776Z,99996.28
2019-01-14T19:18:17.614Z,99995.26
2019-01-14T19:20:49.597Z,99988.36
2019-01-14T19:23:20.931Z,99988.36
2019-01-14T19:25:52.750Z,100012.88
2019-01-14T19:28:25.988Z,100009.13
2019-01-14T19:30:57.839Z,100004.43
2019-01-14T19:33:29.621Z,100009.17
2019-01-14T19:36:01.378Z,100020.91
2019-01-14T19:38:33.759Z,100020.91
2019-01-14T19:41:05.435Z,100026.27
2019-01-14T19:43:37.303Z,100018.45
2019-01-14T19:46:09.293Z,100024.13
2019-01-14T19:48:41.298Z,100030.30
2019-01-14T19:51:13.361Z,100027.96
2019-01-14T19:53:45.306Z,100031.45
2019-01-14T19:56:18.103Z,100032.30
2019-01-14T19:58:49.788Z,100033.53
2019-01-14T20:01:21.390Z,100041.41
2019-01-14T20:03:53.328Z,100041.14
2019-01-14T20:06:25.300Z,100041.98
2019-01-14T20:09:04.390Z,100051.78
2019-01-14T20:11:36.269Z,100043.80
2019-01-14T20:14:15.930Z,100044.33
2019-01-14T20:16:47.860Z,100044.75
2019-01-14T20:19:20.805Z,100046.84
2019-01-14T20:22:04.812Z,100045.16
2019-01-14T20:24:38.356Z,100051.27
2019-01-14T20:27:12.963Z,100061.92
2019-01-14T20:29:44.746Z,100065.88
2019-01-14T20:32:17.792Z,100060.66
2019-01-14T20:34:49.736Z,100062.37
2019-01-14T20:37:23.997Z,100068.50
2019-01-14T20:39:55.780Z,100076.97
2019-01-14T20:42:27.935Z,100076.61
2019-01-14T20:45:00.341Z,100074.26
2019-01-14T20:47:32.011Z,100089.20
2019-01-14T20:50:03.754Z,100084.27
2019-01-14T20:52:34.492Z,100082.23
2019-01-14T20:55:06.364Z,100082.23
2019-01-14T20:57:38.011Z,100080.36
2019-01-14T21:00:19.709Z,100076.12
2019-01-14T21:02:50.599Z,100077.64
2019-01-14T21:05:22.836Z,100071.03
2019-01-14T21:07:54.362Z,100071.03
2019-01-14T21:10:26.056Z,100085.45
2019-01-14T21:12:57.796Z,100091.20
2019-01-14T21:15:29.745Z,100099.83
2019-01-14T21:18:00.504Z,100097.63
2019-01-14T21:20:32.410Z,100102.57
2019-01-14T21:23:04.054Z,100089.84
2019-01-14T21:25:35.743Z,100095.27
2019-01-14T21:28:06.495Z,100087.33
2019-01-14T21:30:38.778Z,100093.91
2019-01-14T21:33:09.546Z,100096.27
2019-01-14T21:35:41.292Z,100094.95
2019-01-14T21:38:14.322Z,100094.95
2019-01-14T21:40:46.123Z,100095.92
2019-01-14T21:43:17.773Z,100092.72
2019-01-14T21:45:49.572Z,100097.47
2019-01-14T21:48:21.597Z,100087.14
2019-01-14T21:50:53.329Z,100084.75
2019-01-14T21:53:25.053Z,100084.75
2019-01-14T21:55:57.311Z,100094.59
2019-01-14T21:58:28.970Z,100083.42
2019-01-14T22:01:00.770Z,100093.78
2019-01-14T22:03:32.600Z,100099.20
2019-01-14T22:06:04.329Z,100092.97
2019-01-14T22:08:35.997Z,100092.97
2019-01-14T22:11:07.891Z,100092.59
2019-01-14T22:13:39.801Z,100090.23
2019-01-14T22:16:18.319Z,100087.84
2019-01-14T22:18:50.065Z,100083.61
2019-01-14T22:21:21.779Z,100087.16
2019-01-14T22:23:55.671Z,100086.84
2019-01-14T22:26:26.618Z,100088.72
2019-01-14T22:28:57.698Z,100106.01
2019-01-14T22:31:28.265Z,100108.53
2019-01-14T22:33:59.836Z,100108.69
2019-01-14T22:36:39.303Z,100106.00
2019-01-14T22:39:11.072Z,100107.69
2019-01-14T22:41:46.107Z,100109.38
2019-01-14T22:44:17.793Z,100110.89
2019-01-14T22:46:49.766Z,100110.21
2019-01-14T22:49:20.451Z,100113.95
2019-01-14T22:51:52.298Z,100112.76
2019-01-14T22:54:24.332Z,100105.14
2019-01-14T22:56:55.857Z,100114.95
2019-01-14T22:59:27.370Z,100107.86
2019-01-14T23:01:59.294Z,100108.02
2019-01-14T23:04:30.808Z,100115.31
2019-01-14T23:07:02.587Z,100115.31
2019-01-14T23:09:34.308Z,100100.02
2019-01-14T23:12:06.058Z,100100.02
2019-01-14T23:14:37.744Z,100117.78
2019-01-14T23:17:08.437Z,100116.61
2019-01-14T23:19:40.307Z,100115.96
2019-01-14T23:22:11.867Z,100125.28
2019-01-14T23:24:44.261Z,100120.38
2019-01-14T23:27:16.302Z,100118.53
2019-01-14T23:29:48.801Z,100119.05
2019-01-14T23:32:20.569Z,100120.73
2019-01-14T23:34:52.306Z,100124.80
2019-01-14T23:37:24.339Z,100124.80
2019-01-14T23:39:56.384Z,100133.94
2019-01-14T23:42:28.302Z,100130.41
2019-01-14T23:45:00.311Z,100128.86
2019-01-14T23:47:31.870Z,100136.50
2019-01-14T23:50:03.989Z,100134.63
2019-01-14T23:52:35.726Z,100133.26
2019-01-14T23:55:06.616Z,100125.83
2019-01-14T23:57:38.373Z,100134.47
